sensor_id;sensor_type;location;lat;lon;timestamp;pressure;altitude;pressure_sealevel;temperature;humidity
11223;BME280;5668;52.012;8.724;2024-03-02T00:01:38;98938.03;;;8.98;84.19
11223;BME280;5668;52.012;8.724;2024-03-02T00:04:08;98931.63;;;9.02;84.89
11223;BME280;5668;52.012;8.724;2024-03-02T00:06:35;98931.50;;;9.04;84.51
11223;BME280;5668;52.012;8.724;2024-03-02T00:09:03;98926.59;;;9.01;84.19
11223;BME280;5668;52.012;8.724;2024-03-02T00:11:31;98927.56;;;9.00;84.37
11223;BME280;5668;52.012;8.724;2024-03-02T00:14:01;98920.72;;;8.99;84.75
11223;BME280;5668;52.012;8.724;2024-03-02T00:16:30;98924.84;;;9.01;84.57
11223;BME280;5668;52.012;8.724;2024-03-02T00:19:03;98931.09;;;8.99;84.61
11223;BME280;5668;52.012;8.724;2024-03-02T00:21:31;98933.69;;;8.99;84.91
11223;BME280;5668;52.012;8.724;2024-03-02T00:23:59;98931.34;;;8.96;85.42
11223;BME280;5668;52.012;8.724;2024-03-02T00:26:27;98935.56;;;8.97;85.37
11223;BME280;5668;52.012;8.724;2024-03-02T00:28:55;98933.94;;;8.96;85.29
11223;BME280;5668;52.012;8.724;2024-03-02T00:31:23;98923.56;;;8.96;85.36
11223;BME280;5668;52.012;8.724;2024-03-02T00:33:51;98922.75;;;8.95;85.26
11223;BME280;5668;52.012;8.724;2024-03-02T00:36:25;98925.50;;;8.93;85.81
11223;BME280;5668;52.012;8.724;2024-03-02T00:38:54;98915.13;;;8.93;85.99
11223;BME280;5668;52.012;8.724;2024-03-02T00:41:22;98911.72;;;8.93;85.92
11223;BME280;5668;52.012;8.724;2024-03-02T00:44:00;98910.88;;;8.92;85.58
11223;BME280;5668;52.012;8.724;2024-03-02T00:46:31;98906.66;;;8.91;85.53
11223;BME280;5668;52.012;8.724;2024-03-02T00:49:00;98901.47;;;8.91;85.58
11223;BME280;5668;52.012;8.724;2024-03-02T00:51:31;98902.31;;;8.92;85.58
11223;BME280;5668;52.012;8.724;2024-03-02T00:53:59;98898.19;;;8.89;85.90
11223;BME280;5668;52.012;8.724;2024-03-02T00:56:27;98899.13;;;8.88;85.85
11223;BME280;5668;52.012;8.724;2024-03-02T00:58:54;98894.78;;;8.89;85.45
11223;BME280;5668;52.012;8.724;2024-03-02T01:01:22;98892.19;;;8.89;85.50
11223;BME280;5668;52.012;8.724;2024-03-02T01:03:49;98898.47;;;8.86;85.66
11223;BME280;5668;52.012;8.724;2024-03-02T01:06:17;98893.94;;;8.88;85.57
11223;BME280;5668;52.012;8.724;2024-03-02T01:08:46;98891.94;;;8.92;85.71
11223;BME280;5668;52.012;8.724;2024-03-02T01:11:16;98897.66;;;8.96;85.64
11223;BME280;5668;52.012;8.724;2024-03-02T01:13:44;98888.94;;;8.97;85.18
11223;BME280;5668;52.012;8.724;2024-03-02T01:16:12;98885.41;;;8.98;84.86
11223;BME280;5668;52.012;8.724;2024-03-02T01:18:39;98887.03;;;8.99;85.13
11223;BME280;5668;52.012;8.724;2024-03-02T01:21:06;98890.31;;;9.01;84.48
11223;BME280;5668;52.012;8.724;2024-03-02T01:23:34;98888.00;;;8.98;84.84
11223;BME280;5668;52.012;8.724;2024-03-02T01:26:02;98891.28;;;9.00;84.29
11223;BME280;5668;52.012;8.724;2024-03-02T01:28:30;98888.69;;;9.00;84.11
11223;BME280;5668;52.012;8.724;2024-03-02T01:30:57;98890.31;;;9.01;84.02
11223;BME280;5668;52.012;8.724;2024-03-02T01:33:24;98894.13;;;8.97;83.55
11223;BME280;5668;52.012;8.724;2024-03-02T01:35:51;98887.56;;;8.92;83.95
11223;BME280;5668;52.012;8.724;2024-03-02T01:38:18;98893.81;;;8.90;83.77
11223;BME280;5668;52.012;8.724;2024-03-02T01:40:46;98895.88;;;8.86;83.84
11223;BME280;5668;52.012;8.724;2024-03-02T01:43:15;98897.06;;;8.82;84.37
11223;BME280;5668;52.012;8.724;2024-03-02T01:45:42;98894.06;;;8.77;84.02
11223;BME280;5668;52.012;8.724;2024-03-02T01:48:09;98888.72;;;8.69;83.94
11223;BME280;5668;52.012;8.724;2024-03-02T01:50:36;98893.19;;;8.67;84.48
11223;BME280;5668;52.012;8.724;2024-03-02T01:53:04;98892.78;;;8.62;84.76
11223;BME280;5668;52.012;8.724;2024-03-02T01:55:31;98886.38;;;8.66;84.67
11223;BME280;5668;52.012;8.724;2024-03-02T01:58:00;98880.66;;;8.63;84.56
11223;BME280;5668;52.012;8.724;2024-03-02T02:00:29;98882.41;;;8.62;85.25
11223;BME280;5668;52.012;8.724;2024-03-02T02:02:58;98873.72;;;8.63;85.90
11223;BME280;5668;52.012;8.724;2024-03-02T02:05:25;98875.47;;;8.63;85.86
11223;BME280;5668;52.012;8.724;2024-03-02T02:07:52;98871.38;;;8.60;86.12
11223;BME280;5668;52.012;8.724;2024-03-02T02:10:20;98865.25;;;8.61;86.15
11223;BME280;5668;52.012;8.724;2024-03-02T02:12:48;98864.28;;;8.62;85.92
11223;BME280;5668;52.012;8.724;2024-03-02T02:15:26;98859.38;;;8.59;86.13
11223;BME280;5668;52.012;8.724;2024-03-02T02:17:55;98850.91;;;8.57;86.24
11223;BME280;5668;52.012;8.724;2024-03-02T02:20:22;98853.13;;;8.62;86.76
11223;BME280;5668;52.012;8.724;2024-03-02T02:22:56;98859.38;;;8.59;85.94
11223;BME280;5668;52.012;8.724;2024-03-02T02:25:24;98853.25;;;8.60;86.23
11223;BME280;5668;52.012;8.724;2024-03-02T02:27:51;98856.78;;;8.59;86.38
11223;BME280;5668;52.012;8.724;2024-03-02T02:30:22;98854.47;;;8.56;86.30
11223;BME280;5668;52.012;8.724;2024-03-02T02:32:50;98850.91;;;8.57;86.51
11223;BME280;5668;52.012;8.724;2024-03-02T02:35:17;98850.91;;;8.57;85.82
11223;BME280;5668;52.012;8.724;2024-03-02T02:37:45;98842.72;;;8.52;85.83
11223;BME280;5668;52.012;8.724;2024-03-02T02:40:15;98840.81;;;8.54;87.07
11223;BME280;5668;52.012;8.724;2024-03-02T02:42:44;98834.69;;;8.55;86.58
11223;BME280;5668;52.012;8.724;2024-03-02T02:45:12;98829.41;;;8.57;86.21
11223;BME280;5668;52.012;8.724;2024-03-02T02:47:40;98826.94;;;8.55;86.91
11223;BME280;5668;52.012;8.724;2024-03-02T02:50:09;98828.56;;;8.56;86.75
11223;BME280;5668;52.012;8.724;2024-03-02T02:52:38;98819.84;;;8.57;86.31
11223;BME280;5668;52.012;8.724;2024-03-02T02:55:08;98813.59;;;8.60;86.14
11223;BME280;5668;52.012;8.724;2024-03-02T02:57:39;98815.22;;;8.61;86.09
11223;BME280;5668;52.012;8.724;2024-03-02T03:05:13;98802.25;;;8.51;86.51
11223;BME280;5668;52.012;8.724;2024-03-02T03:07:41;98801.28;;;8.52;86.98
11223;BME280;5668;52.012;8.724;2024-03-02T03:10:11;98797.75;;;8.53;87.44
11223;BME280;5668;52.012;8.724;2024-03-02T03:12:40;98799.41;;;8.54;87.01
11223;BME280;5668;52.012;8.724;2024-03-02T03:15:09;98802.13;;;8.52;86.96
11223;BME280;5668;52.012;8.724;2024-03-02T03:17:37;98798.69;;;8.52;87.63
11223;BME280;5668;52.012;8.724;2024-03-02T03:20:06;98794.22;;;8.54;86.86
11223;BME280;5668;52.012;8.724;2024-03-02T03:22:38;98799.41;;;8.54;87.65
11223;BME280;5668;52.012;8.724;2024-03-02T03:25:06;98808.25;;;8.51;86.76
11223;BME280;5668;52.012;8.724;2024-03-02T03:27:34;98803.19;;;8.50;87.26
11223;BME280;5668;52.012;8.724;2024-03-02T03:30:01;98802.94;;;8.53;87.48
11223;BME280;5668;52.012;8.724;2024-03-02T03:32:29;98791.75;;;8.52;88.07
11223;BME280;5668;52.012;8.724;2024-03-02T03:34:56;98802.53;;;8.48;88.11
11223;BME280;5668;52.012;8.724;2024-03-02T03:37:23;98794.75;;;8.48;87.64
11223;BME280;5668;52.012;8.724;2024-03-02T03:39:52;98794.06;;;8.46;87.78
11223;BME280;5668;52.012;8.724;2024-03-02T03:42:20;98790.66;;;8.45;87.96
11223;BME280;5668;52.012;8.724;2024-03-02T03:44:47;98780.53;;;8.42;88.32
11223;BME280;5668;52.012;8.724;2024-03-02T03:47:15;98790.91;;;8.42;88.11
11223;BME280;5668;52.012;8.724;2024-03-02T03:49:42;98789.13;;;8.43;88.95
11223;BME280;5668;52.012;8.724;2024-03-02T03:52:10;98791.06;;;8.41;88.39
11223;BME280;5668;52.012;8.724;2024-03-02T03:54:37;98792.00;;;8.40;88.64
11223;BME280;5668;52.012;8.724;2024-03-02T03:57:05;98799.88;;;8.38;88.53
11223;BME280;5668;52.012;8.724;2024-03-02T03:59:32;98802.34;;;8.40;88.60
11223;BME280;5668;52.012;8.724;2024-03-02T04:02:00;98792.25;;;8.37;88.40
11223;BME280;5668;52.012;8.724;2024-03-02T04:04:28;98797.19;;;8.40;88.79
11223;BME280;5668;52.012;8.724;2024-03-02T04:06:56;98792.94;;;8.39;88.04
11223;BME280;5668;52.012;8.724;2024-03-02T04:09:23;98802.88;;;8.34;88.74
11223;BME280;5668;52.012;8.724;2024-03-02T04:11:51;98803.13;;;8.31;88.41
11223;BME280;5668;52.012;8.724;2024-03-02T04:14:18;98808.31;;;8.31;89.24
11223;BME280;5668;52.012;8.724;2024-03-02T04:16:46;98800.41;;;8.32;89.29
11223;BME280;5668;52.012;8.724;2024-03-02T04:19:13;98809.94;;;8.32;88.95
11223;BME280;5668;52.012;8.724;2024-03-02T04:21:41;98806.75;;;8.28;88.86
11223;BME280;5668;52.012;8.724;2024-03-02T04:24:08;98813.84;;;8.26;88.84
11223;BME280;5668;52.012;8.724;2024-03-02T04:26:36;98813.97;;;8.25;89.65
11223;BME280;5668;52.012;8.724;2024-03-02T04:29:03;98818.19;;;8.26;89.51
11223;BME280;5668;52.012;8.724;2024-03-02T04:31:30;98814.09;;;8.23;89.74
11223;BME280;5668;52.012;8.724;2024-03-02T04:33:57;98812.56;;;8.21;89.81
11223;BME280;5668;52.012;8.724;2024-03-02T04:36:24;98819.41;;;8.22;89.59
11223;BME280;5668;52.012;8.724;2024-03-02T04:38:53;98818.44;;;8.23;90.51
11223;BME280;5668;52.012;8.724;2024-03-02T04:41:20;98815.88;;;8.23;90.58
11223;BME280;5668;52.012;8.724;2024-03-02T04:43:47;98805.50;;;8.23;90.16
11223;BME280;5668;52.012;8.724;2024-03-02T04:46:14;98809.75;;;8.24;89.60
11223;BME280;5668;52.012;8.724;2024-03-02T04:48:42;98818.69;;;8.20;90.42
11223;BME280;5668;52.012;8.724;2024-03-02T04:51:09;98819.91;;;8.15;90.48
11223;BME280;5668;52.012;8.724;2024-03-02T04:53:37;98816.63;;;8.13;90.14
11223;BME280;5668;52.012;8.724;2024-03-02T04:56:06;98822.50;;;8.15;91.00
11223;BME280;5668;52.012;8.724;2024-03-02T04:59:06;98821.56;;;8.16;90.98
11223;BME280;5668;52.012;8.724;2024-03-02T05:01:33;98824.97;;;8.17;90.99
11223;BME280;5668;52.012;8.724;2024-03-02T05:04:00;98831.91;;;8.16;91.30
11223;BME280;5668;52.012;8.724;2024-03-02T05:06:27;98832.59;;;8.19;91.73
11223;BME280;5668;52.012;8.724;2024-03-02T05:08:55;98826.47;;;8.20;91.35
11223;BME280;5668;52.012;8.724;2024-03-02T05:11:24;98833.28;;;8.21;91.04
11223;BME280;5668;52.012;8.724;2024-03-02T05:14:19;98837.91;;;8.17;91.72
11223;BME280;5668;52.012;8.724;2024-03-02T05:16:46;98830.03;;;8.19;90.88
11223;BME280;5668;52.012;8.724;2024-03-02T05:19:13;98840.22;;;8.20;90.84
11223;BME280;5668;52.012;8.724;2024-03-02T05:21:40;98840.91;;;8.22;90.67
11223;BME280;5668;52.012;8.724;2024-03-02T05:24:08;98848.81;;;8.21;91.38
11223;BME280;5668;52.012;8.724;2024-03-02T05:26:36;98846.09;;;8.22;90.93
11223;BME280;5668;52.012;8.724;2024-03-02T05:29:03;98843.38;;;8.24;91.71
11223;BME280;5668;52.012;8.724;2024-03-02T05:31:31;98851.03;;;8.25;90.61
11223;BME280;5668;52.012;8.724;2024-03-02T05:33:58;98848.31;;;8.27;91.04
11223;BME280;5668;52.012;8.724;2024-03-02T05:36:25;98847.50;;;8.26;90.51
11223;BME280;5668;52.012;8.724;2024-03-02T05:38:52;98850.19;;;8.25;90.27
11223;BME280;5668;52.012;8.724;2024-03-02T05:41:19;98846.91;;;8.23;90.15
11223;BME280;5668;52.012;8.724;2024-03-02T05:43:48;98865.72;;;8.25;90.57
11223;BME280;5668;52.012;8.724;2024-03-02T05:46:15;98858.66;;;8.27;91.18
11223;BME280;5668;52.012;8.724;2024-03-02T05:48:42;98850.91;;;8.27;90.45
11223;BME280;5668;52.012;8.724;2024-03-02T05:51:10;98863.56;;;8.30;90.84
11223;BME280;5668;52.012;8.724;2024-03-02T05:53:37;98861.78;;;8.30;91.06
11223;BME280;5668;52.012;8.724;2024-03-02T05:56:05;98863.84;;;8.27;90.69
11223;BME280;5668;52.012;8.724;2024-03-02T05:58:32;98863.03;;;8.26;90.56
11223;BME280;5668;52.012;8.724;2024-03-02T06:01:13;98856.19;;;8.25;90.59
11223;BME280;5668;52.012;8.724;2024-03-02T06:03:40;98855.94;;;8.28;90.64
11223;BME280;5668;52.012;8.724;2024-03-02T06:06:08;98861.38;;;8.25;91.03
11223;BME280;5668;52.012;8.724;2024-03-02T06:08:35;98861.91;;;8.29;90.41
11223;BME280;5668;52.012;8.724;2024-03-02T06:11:02;98860.88;;;8.31;90.31
11223;BME280;5668;52.012;8.724;2024-03-02T06:13:29;98859.22;;;8.30;90.73
11223;BME280;5668;52.012;8.724;2024-03-02T06:15:57;98862.53;;;8.32;90.52
11223;BME280;5668;52.012;8.724;2024-03-02T06:18:25;98862.66;;;8.31;90.37
11223;BME280;5668;52.012;8.724;2024-03-02T06:20:53;98861.91;;;8.29;90.51
11223;BME280;5668;52.012;8.724;2024-03-02T06:23:21;98865.25;;;8.31;90.10
11223;BME280;5668;52.012;8.724;2024-03-02T06:25:48;98866.97;;;8.30;90.23
11223;BME280;5668;52.012;8.724;2024-03-02T06:28:15;98864.38;;;8.30;89.91
11223;BME280;5668;52.012;8.724;2024-03-02T06:30:42;98867.38;;;8.26;90.86
11223;BME280;5668;52.012;8.724;2024-03-02T06:33:09;98874.56;;;8.22;90.54
11223;BME280;5668;52.012;8.724;2024-03-02T06:35:38;98876.31;;;8.22;91.37
11223;BME280;5668;52.012;8.724;2024-03-02T06:38:06;98886.44;;;8.25;91.28
11223;BME280;5668;52.012;8.724;2024-03-02T06:40:33;98893.25;;;8.26;91.27
11223;BME280;5668;52.012;8.724;2024-03-02T06:43:00;98882.31;;;8.22;91.76
11223;BME280;5668;52.012;8.724;2024-03-02T06:45:28;98887.50;;;8.22;91.11
11223;BME280;5668;52.012;8.724;2024-03-02T06:47:56;98891.59;;;8.25;91.39
11223;BME280;5668;52.012;8.724;2024-03-02T06:50:24;98884.78;;;8.24;92.15
11223;BME280;5668;52.012;8.724;2024-03-02T06:52:52;98891.59;;;8.25;91.82
11223;BME280;5668;52.012;8.724;2024-03-02T06:55:19;98890.78;;;8.24;91.55
11223;BME280;5668;52.012;8.724;2024-03-02T06:57:47;98900.19;;;8.25;92.53
11223;BME280;5668;52.012;8.724;2024-03-02T07:00:14;98896.78;;;8.25;92.74
11223;BME280;5668;52.012;8.724;2024-03-02T07:02:43;98905.25;;;8.27;92.62
11223;BME280;5668;52.012;8.724;2024-03-02T07:05:11;98907.34;;;8.33;92.32
11223;BME280;5668;52.012;8.724;2024-03-02T07:07:38;98910.75;;;8.33;91.97
11223;BME280;5668;52.012;8.724;2024-03-02T07:10:08;98902.28;;;8.31;91.97
11223;BME280;5668;52.012;8.724;2024-03-02T07:12:35;98899.78;;;8.30;92.69
11223;BME280;5668;52.012;8.724;2024-03-02T07:15:03;98908.28;;;8.32;92.50
11223;BME280;5668;52.012;8.724;2024-03-02T07:17:55;98911.81;;;8.31;93.04
11223;BME280;5668;52.012;8.724;2024-03-02T07:20:22;98915.13;;;8.33;93.09
11223;BME280;5668;52.012;8.724;2024-03-02T07:22:49;98913.06;;;8.36;92.47
11223;BME280;5668;52.012;8.724;2024-03-02T07:25:18;98912.72;;;8.41;92.56
11223;BME280;5668;52.012;8.724;2024-03-02T07:27:45;98922.66;;;8.45;92.26
11223;BME280;5668;52.012;8.724;2024-03-02T07:30:14;98925.13;;;8.47;92.08
11223;BME280;5668;52.012;8.724;2024-03-02T07:32:43;98922.53;;;8.47;91.08
11223;BME280;5668;52.012;8.724;2024-03-02T07:35:12;98921.44;;;8.49;91.61
11223;BME280;5668;52.012;8.724;2024-03-02T07:37:41;98921.44;;;8.49;91.18
11223;BME280;5668;52.012;8.724;2024-03-02T07:40:10;98928.16;;;8.52;90.85
11223;BME280;5668;52.012;8.724;2024-03-02T07:42:40;98936.03;;;8.50;90.96
11223;BME280;5668;52.012;8.724;2024-03-02T07:45:08;98932.50;;;8.51;91.04
11223;BME280;5668;52.012;8.724;2024-03-02T07:47:35;98930.50;;;8.55;91.48
11223;BME280;5668;52.012;8.724;2024-03-02T07:50:03;98935.03;;;8.63;90.65
11223;BME280;5668;52.012;8.724;2024-03-02T07:52:32;98940.34;;;8.61;90.11
11223;BME280;5668;52.012;8.724;2024-03-02T07:55:00;98941.97;;;8.62;90.21
11223;BME280;5668;52.012;8.724;2024-03-02T07:57:27;98938.28;;;8.65;90.92
11223;BME280;5668;52.012;8.724;2024-03-02T07:59:55;98939.81;;;8.67;90.46
11223;BME280;5668;52.012;8.724;2024-03-02T08:02:25;98939.56;;;8.70;91.12
11223;BME280;5668;52.012;8.724;2024-03-02T08:04:52;98942.34;;;8.78;90.77
11223;BME280;5668;52.012;8.724;2024-03-02T08:07:19;98950.28;;;8.86;90.73
11223;BME280;5668;52.012;8.724;2024-03-02T08:09:47;98950.69;;;8.91;90.86
11223;BME280;5668;52.012;8.724;2024-03-02T08:12:14;98946.50;;;9.00;90.41
11223;BME280;5668;52.012;8.724;2024-03-02T08:14:41;98945.56;;;9.01;90.77
11223;BME280;5668;52.012;8.724;2024-03-02T08:17:09;98939.84;;;9.07;90.19
11223;BME280;5668;52.012;8.724;2024-03-02T08:19:37;98942.44;;;9.07;90.56
11223;BME280;5668;52.012;8.724;2024-03-02T08:22:04;98954.75;;;9.15;90.45
11223;BME280;5668;52.012;8.724;2024-03-02T08:24:32;98959.09;;;9.14;90.05
11223;BME280;5668;52.012;8.724;2024-03-02T08:27:00;98952.44;;;9.21;90.38
11223;BME280;5668;52.012;8.724;2024-03-02T08:29:27;98949.31;;;9.27;90.28
11223;BME280;5668;52.012;8.724;2024-03-02T08:31:55;98933.50;;;9.30;90.36
11223;BME280;5668;52.012;8.724;2024-03-02T08:34:23;98935.69;;;9.35;90.20
11223;BME280;5668;52.012;8.724;2024-03-02T08:36:50;98936.66;;;9.44;90.27
11223;BME280;5668;52.012;8.724;2024-03-02T08:39:18;98938.47;;;9.53;90.30
11223;BME280;5668;52.012;8.724;2024-03-02T08:41:47;98952.41;;;9.61;89.75
11223;BME280;5668;52.012;8.724;2024-03-02T08:44:14;98960.34;;;9.69;89.72
11223;BME280;5668;52.012;8.724;2024-03-02T08:46:42;98956.91;;;9.79;89.77
11223;BME280;5668;52.012;8.724;2024-03-02T08:49:09;98955.97;;;9.89;89.69
11223;BME280;5668;52.012;8.724;2024-03-02T08:51:38;98963.88;;;9.97;89.67
11223;BME280;5668;52.012;8.724;2024-03-02T08:54:05;98961.28;;;10.07;89.50
11223;BME280;5668;52.012;8.724;2024-03-02T08:56:32;98957.03;;;10.16;89.45
11223;BME280;5668;52.012;8.724;2024-03-02T08:59:00;98960.34;;;10.27;89.43
11223;BME280;5668;52.012;8.724;2024-03-02T09:01:27;98959.22;;;10.39;89.08
11223;BME280;5668;52.012;8.724;2024-03-02T09:03:54;98955.78;;;10.48;88.77
11223;BME280;5668;52.012;8.724;2024-03-02T09:06:22;98960.97;;;10.58;88.30
11223;BME280;5668;52.012;8.724;2024-03-02T09:08:50;98966.00;;;10.69;88.32
11223;BME280;5668;52.012;8.724;2024-03-02T09:11:18;98954.91;;;10.77;87.07
11223;BME280;5668;52.012;8.724;2024-03-02T09:13:45;98961.16;;;10.84;85.16
11223;BME280;5668;52.012;8.724;2024-03-02T09:16:12;98959.88;;;10.98;84.99
11223;BME280;5668;52.012;8.724;2024-03-02T09:18:39;98950.41;;;11.06;84.08
11223;BME280;5668;52.012;8.724;2024-03-02T09:21:06;98962.53;;;11.15;82.95
11223;BME280;5668;52.012;8.724;2024-03-02T09:23:34;98957.59;;;11.22;82.13
11223;BME280;5668;52.012;8.724;2024-03-02T09:26:02;98947.41;;;11.29;81.04
11223;BME280;5668;52.012;8.724;2024-03-02T09:28:30;98951.06;;;11.36;80.65
11223;BME280;5668;52.012;8.724;2024-03-02T09:30:57;98947.59;;;11.45;80.68
11223;BME280;5668;52.012;8.724;2024-03-02T09:33:24;98951.78;;;11.55;80.18
11223;BME280;5668;52.012;8.724;2024-03-02T09:35:51;98954.34;;;11.65;80.82
11223;BME280;5668;52.012;8.724;2024-03-02T09:38:18;98954.97;;;11.77;80.94
11223;BME280;5668;52.012;8.724;2024-03-02T09:40:46;98949.97;;;11.83;80.70
11223;BME280;5668;52.012;8.724;2024-03-02T09:43:14;98950.34;;;11.88;80.08
11223;BME280;5668;52.012;8.724;2024-03-02T09:45:42;98951.22;;;11.97;79.88
11223;BME280;5668;52.012;8.724;2024-03-02T09:48:09;98952.13;;;12.06;80.45
11223;BME280;5668;52.012;8.724;2024-03-02T09:50:37;98945.19;;;12.14;80.35
11223;BME280;5668;52.012;8.724;2024-03-02T09:53:05;98942.81;;;12.21;79.25
11223;BME280;5668;52.012;8.724;2024-03-02T09:55:33;98946.75;;;12.25;77.33
11223;BME280;5668;52.012;8.724;2024-03-02T09:58:01;98951.34;;;12.31;76.07
11223;BME280;5668;52.012;8.724;2024-03-02T10:00:29;98954.84;;;12.39;75.20
11223;BME280;5668;52.012;8.724;2024-03-02T10:02:56;98961.38;;;12.44;74.60
11223;BME280;5668;52.012;8.724;2024-03-02T10:05:25;98959.94;;;12.49;73.74
11223;BME280;5668;52.012;8.724;2024-03-02T10:07:59;98962.59;;;12.57;73.64
11223;BME280;5668;52.012;8.724;2024-03-02T10:10:35;98954.00;;;12.65;73.53
11223;BME280;5668;52.012;8.724;2024-03-02T10:13:06;98962.22;;;12.70;73.04
11223;BME280;5668;52.012;8.724;2024-03-02T10:15:36;98957.81;;;12.70;72.17
11223;BME280;5668;52.012;8.724;2024-03-02T10:18:04;98961.94;;;12.81;73.13
11223;BME280;5668;52.012;8.724;2024-03-02T10:20:32;98963.78;;;12.89;71.96
11223;BME280;5668;52.012;8.724;2024-03-02T10:23:10;98961.69;;;12.92;70.65
11223;BME280;5668;52.012;8.724;2024-03-02T10:25:38;98964.34;;;13.00;71.56
11223;BME280;5668;52.012;8.724;2024-03-02T10:28:06;98962.41;;;13.10;71.15
11223;BME280;5668;52.012;8.724;2024-03-02T10:30:35;98965.09;;;13.18;71.57
11223;BME280;5668;52.012;8.724;2024-03-02T10:33:03;98960.56;;;13.29;71.62
11223;BME280;5668;52.012;8.724;2024-03-02T10:35:32;98963.38;;;13.43;71.81
11223;BME280;5668;52.012;8.724;2024-03-02T10:38:04;98961.94;;;13.57;71.81
11223;BME280;5668;52.012;8.724;2024-03-02T10:40:32;98962.63;;;13.67;71.92
11223;BME280;5668;52.012;8.724;2024-03-02T10:43:00;98956.63;;;13.83;71.58
11223;BME280;5668;52.012;8.724;2024-03-02T10:45:28;98951.06;;;13.86;68.95
11223;BME280;5668;52.012;8.724;2024-03-02T10:47:58;98957.28;;;13.93;69.29
11223;BME280;5668;52.012;8.724;2024-03-02T10:50:27;98953.38;;;13.97;68.18
11223;BME280;5668;52.012;8.724;2024-03-02T10:52:54;98946.84;;;14.09;69.37
11223;BME280;5668;52.012;8.724;2024-03-02T10:55:22;98952.72;;;14.19;69.50
11223;BME280;5668;52.012;8.724;2024-03-02T10:57:51;98950.28;;;14.26;67.58
11223;BME280;5668;52.012;8.724;2024-03-02T11:00:19;98949.94;;;14.29;66.48
11223;BME280;5668;52.012;8.724;2024-03-02T11:02:52;98957.28;;;14.33;65.99
11223;BME280;5668;52.012;8.724;2024-03-02T11:05:27;98958.59;;;14.38;65.89
11223;BME280;5668;52.012;8.724;2024-03-02T11:08:00;98957.94;;;14.52;67.04
11223;BME280;5668;52.012;8.724;2024-03-02T11:10:34;98953.34;;;14.70;68.13
11223;BME280;5668;52.012;8.724;2024-03-02T11:13:05;98946.78;;;14.74;66.23
11223;BME280;5668;52.012;8.724;2024-03-02T11:15:35;98941.69;;;14.89;66.94
11223;BME280;5668;52.012;8.724;2024-03-02T11:18:04;98944.63;;;14.94;65.55
11223;BME280;5668;52.012;8.724;2024-03-02T11:20:36;98940.22;;;14.94;63.08
11223;BME280;5668;52.012;8.724;2024-03-02T11:23:05;98945.31;;;14.88;62.96
11223;BME280;5668;52.012;8.724;2024-03-02T11:25:34;98948.66;;;15.04;64.75
11223;BME280;5668;52.012;8.724;2024-03-02T11:28:03;98951.78;;;15.08;63.02
11223;BME280;5668;52.012;8.724;2024-03-02T11:30:49;98948.97;;;15.18;63.39
11223;BME280;5668;52.012;8.724;2024-03-02T11:33:23;98955.16;;;15.25;62.84
11223;BME280;5668;52.012;8.724;2024-03-02T11:35:56;98948.44;;;15.22;61.30
11223;BME280;5668;52.012;8.724;2024-03-02T11:38:29;98945.59;;;15.40;62.60
11223;BME280;5668;52.012;8.724;2024-03-02T11:40:57;98945.00;;;15.61;63.68
11223;BME280;5668;52.012;8.724;2024-03-02T11:43:27;98944.78;;;15.70;62.85
11223;BME280;5668;52.012;8.724;2024-03-02T11:45:59;98947.00;;;15.81;62.75
11223;BME280;5668;52.012;8.724;2024-03-02T11:48:30;98950.25;;;15.83;60.57
11223;BME280;5668;52.012;8.724;2024-03-02T11:51:00;98945.19;;;15.82;59.21
11223;BME280;5668;52.012;8.724;2024-03-02T11:53:28;98942.63;;;15.97;60.81
11223;BME280;5668;52.012;8.724;2024-03-02T11:55:58;98950.44;;;16.05;59.81
11223;BME280;5668;52.012;8.724;2024-03-02T11:58:27;98949.06;;;16.09;58.56
11223;BME280;5668;52.012;8.724;2024-03-02T12:00:55;98939.25;;;16.11;59.07
11223;BME280;5668;52.012;8.724;2024-03-02T12:03:24;98939.75;;;16.29;60.98
11223;BME280;5668;52.012;8.724;2024-03-02T12:05:53;98936.34;;;16.43;60.24
11223;BME280;5668;52.012;8.724;2024-03-02T12:08:22;98937.06;;;16.37;57.11
11223;BME280;5668;52.012;8.724;2024-03-02T12:10:57;98924.56;;;16.39;57.40
11223;BME280;5668;52.012;8.724;2024-03-02T12:13:25;98934.34;;;16.31;57.07
11223;BME280;5668;52.012;8.724;2024-03-02T12:15:54;98930.28;;;16.43;57.86
11223;BME280;5668;52.012;8.724;2024-03-02T12:18:22;98933.00;;;16.49;58.46
11223;BME280;5668;52.012;8.724;2024-03-02T12:20:50;98925.59;;;16.53;56.84
11223;BME280;5668;52.012;8.724;2024-03-02T12:23:23;98919.25;;;16.47;56.30
11223;BME280;5668;52.012;8.724;2024-03-02T12:25:51;98924.16;;;16.50;56.18
11223;BME280;5668;52.012;8.724;2024-03-02T12:28:18;98915.03;;;16.46;56.93
11223;BME280;5668;52.012;8.724;2024-03-02T12:30:46;98921.88;;;16.47;56.46
11223;BME280;5668;52.012;8.724;2024-03-02T12:33:14;98912.56;;;16.45;54.90
11223;BME280;5668;52.012;8.724;2024-03-02T12:35:42;98918.34;;;16.40;55.87
11223;BME280;5668;52.012;8.724;2024-03-02T12:38:10;98915.38;;;16.43;57.95
11223;BME280;5668;52.012;8.724;2024-03-02T12:40:39;98921.19;;;16.53;56.76
11223;BME280;5668;52.012;8.724;2024-03-02T12:43:06;98921.19;;;16.53;56.30
11223;BME280;5668;52.012;8.724;2024-03-02T12:45:34;98920.59;;;16.43;54.27
11223;BME280;5668;52.012;8.724;2024-03-02T12:48:01;98912.56;;;16.45;56.23
11223;BME280;5668;52.012;8.724;2024-03-02T12:50:29;98910.03;;;16.51;54.94
11223;BME280;5668;52.012;8.724;2024-03-02T12:52:56;98909.50;;;16.56;56.82
11223;BME280;5668;52.012;8.724;2024-03-02T12:55:24;98915.56;;;16.56;55.63
11223;BME280;5668;52.012;8.724;2024-03-02T12:57:53;98912.94;;;16.56;54.24
11223;BME280;5668;52.012;8.724;2024-03-02T13:00:21;98905.78;;;16.50;54.04
11223;BME280;5668;52.012;8.724;2024-03-02T13:02:49;98895.38;;;16.57;56.00
11223;BME280;5668;52.012;8.724;2024-03-02T13:05:17;98900.75;;;16.63;55.36
11223;BME280;5668;52.012;8.724;2024-03-02T13:07:46;98894.56;;;16.56;53.87
11223;BME280;5668;52.012;8.724;2024-03-02T13:10:14;98884.34;;;16.47;54.55
11223;BME280;5668;52.012;8.724;2024-03-02T13:12:42;98901.91;;;16.46;54.64
11223;BME280;5668;52.012;8.724;2024-03-02T13:15:11;98891.03;;;16.49;54.95
11223;BME280;5668;52.012;8.724;2024-03-02T13:17:39;98892.59;;;16.58;55.52
11223;BME280;5668;52.012;8.724;2024-03-02T13:20:08;98897.47;;;16.61;54.25
11223;BME280;5668;52.012;8.724;2024-03-02T13:22:37;98887.63;;;16.78;56.16
11223;BME280;5668;52.012;8.724;2024-03-02T13:25:05;98893.50;;;16.95;55.25
11223;BME280;5668;52.012;8.724;2024-03-02T13:27:34;98889.00;;;16.89;54.87
11223;BME280;5668;52.012;8.724;2024-03-02T13:30:02;98889.00;;;16.89;54.48